Time;durP1;ratioP1;P1;durP2;ratioP2;P2;SDS_P1;SDS_P2;PMS_P1;PMS_P2;Temp;Humidity;BMP_temperature;BMP_pressure;BME280_temperature;BME280_humidity;BME280_pressure;Samples;Min_cycle;Max_cycle;Signal;HPM_P1;HPM_P2
2022/05/06 00:01:44;;;;;;;40.58;23.13;;;;;;;11.08;79.92;102415.44;4976716;28;20030;-76
2022/05/06 00:04:10;;;;;;;43.60;21.73;;;;;;;11.06;79.27;102402.88;4990262;28;20037;-77
2022/05/06 00:06:36;;;;;;;45.58;22.38;;;;;;;10.99;80.31;102407.72;4972789;28;20049;-77
2022/05/06 00:09:03;;;;;;;37.85;21.73;;;;;;;10.97;78.73;102404.22;4973264;28;20038;-71
2022/05/06 00:11:29;;;;;;;42.83;22.00;;;;;;;10.94;79.34;102407.94;4970488;28;20126;-77
2022/05/06 00:13:54;;;;;;;44.63;22.38;;;;;;;10.91;79.23;102410.84;4985515;28;20521;-72
2022/05/06 00:16:20;;;;;;;38.67;21.50;;;;;;;10.90;79.42;102406.34;4985677;28;20037;-77
2022/05/06 00:18:46;;;;;;;39.20;21.08;;;;;;;10.88;78.90;102413.72;4991003;28;20432;-71
2022/05/06 00:21:11;;;;;;;42.53;21.17;;;;;;;10.85;78.83;102416.56;4986657;28;20060;-77
2022/05/06 00:23:37;;;;;;;42.47;21.30;;;;;;;10.81;78.83;102416.78;4987541;28;20038;-71
2022/05/06 00:26:03;;;;;;;35.80;20.50;;;;;;;10.72;78.63;102412.66;4986247;28;20161;-77
2022/05/06 00:28:32;;;;;;;33.60;20.30;;;;;;;10.70;78.84;102417.31;4979780;28;20093;-77
2022/05/06 00:30:58;;;;;;;47.50;23.27;;;;;;;10.67;80.88;102414.72;4978718;28;20447;-77
2022/05/06 00:33:26;;;;;;;43.83;23.17;;;;;;;10.67;79.89;102414.72;4990539;28;20138;-77
2022/05/06 00:35:56;;;;;;;43.13;22.83;;;;;;;10.63;79.64;102415.81;4971457;28;20564;-72
2022/05/06 00:38:23;;;;;;;50.28;22.60;;;;;;;10.62;80.59;102414.94;4970508;28;20193;-71
2022/05/06 00:40:49;;;;;;;41.70;21.45;;;;;;;10.58;80.33;102415.16;4987266;28;20470;-77
2022/05/06 00:43:14;;;;;;;42.70;21.40;;;;;;;10.54;79.59;102414.44;4981667;28;20053;-77
2022/05/06 00:45:52;;;;;;;40.75;21.13;;;;;;;10.51;79.01;102422.75;4977242;28;20031;-77
2022/05/06 00:48:20;;;;;;;35.78;19.80;;;;;;;10.49;78.13;102424.63;4994030;28;20034;-72
2022/05/06 00:50:46;;;;;;;40.38;20.77;;;;;;;10.44;79.13;102422.16;4971996;28;20018;-75
2022/05/06 00:53:15;;;;;;;40.75;19.85;;;;;;;10.38;79.04;102425.16;4980724;28;20038;-74
2022/05/06 00:55:41;;;;;;;33.38;17.58;;;;;;;10.34;77.31;102420.81;4984948;28;20034;-77
2022/05/06 00:58:07;;;;;;;36.35;18.58;;;;;;;10.30;78.49;102424.59;4964313;28;20034;-72
2022/05/06 01:00:33;;;;;;;31.60;18.50;;;;;;;10.21;77.46;102415.03;4975060;28;20177;-76
2022/05/06 01:02:59;;;;;;;32.47;19.05;;;;;;;10.15;78.42;102420.72;4975344;28;20572;-78
2022/05/06 01:05:26;;;;;;;38.35;19.20;;;;;;;10.10;78.17;102417.34;5035653;23;20140;-87
2022/05/06 01:07:52;;;;;;;32.92;19.05;;;;;;;10.05;77.78;102413.94;5016497;28;20491;-86
2022/05/06 01:10:20;;;;;;;40.38;21.05;;;;;;;9.98;79.04;102415.19;4995241;28;20587;-85
2022/05/06 01:12:46;;;;;;;38.80;19.65;;;;;;;9.96;78.84;102419.78;5014142;28;20071;-87
2022/05/06 01:15:20;;;;;;;37.30;19.40;;;;;;;9.92;78.91;102418.16;5011145;28;20401;-87
2022/05/06 01:17:48;;;;;;;34.83;18.95;;;;;;;9.88;78.57;102436.44;4993650;28;20038;-86
2022/05/06 01:20:16;;;;;;;37.20;19.20;;;;;;;9.83;79.23;102411.28;5029487;28;20109;-87
2022/05/06 01:22:47;;;;;;;37.40;19.95;;;;;;;9.85;78.89;102417.56;5029264;28;20476;-87
2022/05/06 01:25:13;;;;;;;40.58;20.58;;;;;;;9.80;80.01;102419.59;5011227;28;20332;-87
2022/05/06 01:27:52;;;;;;;39.25;18.95;;;;;;;9.78;78.88;102424.19;5009757;28;20595;-87
2022/05/06 01:30:38;;;;;;;37.58;19.48;;;;;;;9.79;79.02;102420.56;4977817;28;20026;-86
2022/05/06 01:33:05;;;;;;;35.25;17.83;;;;;;;9.70;79.81;102427.28;5028588;28;20457;-86
2022/05/06 01:35:35;;;;;;;44.45;19.88;;;;;;;9.80;80.62;102435.03;4994986;28;20052;-86
2022/05/06 01:38:04;;;;;;;48.33;21.83;;;;;;;9.83;82.13;102435.75;5010280;28;20033;-85
2022/05/06 01:40:39;;;;;;;51.33;21.67;;;;;;;9.84;82.33;102428.47;4992429;28;20571;-87
2022/05/06 01:43:16;;;;;;;46.30;21.30;;;;;;;9.81;82.42;102421.34;5006069;28;20041;-86
2022/05/06 01:45:48;;;;;;;47.05;21.42;;;;;;;9.87;81.16;102429.22;5012373;28;20510;-86
2022/05/06 01:48:16;;;;;;;48.47;21.63;;;;;;;9.90;81.63;102420.97;4994686;28;20064;-86
2022/05/06 01:50:48;;;;;;;48.78;23.45;;;;;;;9.94;82.13;102428.03;5009400;28;20424;-87
2022/05/06 01:53:16;;;;;;;48.83;23.75;;;;;;;9.96;82.59;102436.97;4994845;28;20132;-85
2022/05/06 01:55:45;;;;;;;50.50;21.30;;;;;;;9.90;83.12;102433.66;5005180;28;20415;-87
2022/05/06 01:58:13;;;;;;;53.65;23.13;;;;;;;9.87;83.02;102439.22;4989733;28;20547;-86
2022/05/06 02:00:47;;;;;;;61.13;23.90;;;;;;;9.84;83.70;102437.53;5006381;28;20365;-87
2022/05/06 02:06:06;;;;;;;56.33;22.38;;;;;;;9.73;83.89;102428.97;5005464;28;20042;-86
2022/05/06 02:08:35;;;;;;;88.03;23.60;;;;;;;9.74;84.88;102430.72;5009097;28;20117;-87
2022/05/06 02:11:01;;;;;;;78.40;23.27;;;;;;;9.71;84.80;102425.44;5003096;28;20323;-87
2022/05/06 02:13:28;;;;;;;50.40;21.83;;;;;;;9.73;84.59;102433.50;5009086;28;20029;-84
2022/05/06 02:16:23;;;;;;;50.13;21.88;;;;;;;9.72;84.33;102424.47;5013805;28;20457;-86
2022/05/06 02:19:20;;;;;;;51.80;21.65;;;;;;;9.81;84.40;102421.34;5010191;28;20064;-84
2022/05/06 02:22:17;;;;;;;42.38;21.00;;;;;;;9.86;83.55;102438.34;4993670;28;20067;-86
2022/05/06 02:24:57;;;;;;;45.72;20.45;;;;;;;9.88;83.52;102438.28;5011594;28;20101;-86
2022/05/06 02:27:50;;;;;;;65.22;18.65;;;;;;;9.80;84.11;102429.59;4986253;28;20040;-87
2022/05/06 02:33:13;;;;;;;61.25;18.55;;;;;;;9.71;84.00;102441.75;5022143;28;20037;-86
2022/05/06 02:35:42;;;;;;;33.75;16.85;;;;;;;9.73;82.89;102439.81;5010858;28;20029;-88
2022/05/06 02:38:09;;;;;;;67.53;19.27;;;;;;;9.71;83.40;102433.59;5006811;28;20035;-86
2022/05/06 02:40:36;;;;;;;81.10;18.90;;;;;;;9.73;84.02;102433.50;5007752;28;20156;-86
2022/05/06 02:43:04;;;;;;;36.90;18.20;;;;;;;9.70;83.33;102440.88;5003738;28;20129;-85
2022/05/06 02:45:32;;;;;;;44.65;19.02;;;;;;;9.65;83.56;102429.31;4993839;28;20116;-88
2022/05/06 02:47:58;;;;;;;41.75;19.02;;;;;;;9.73;82.86;102444.38;5009727;28;20488;-86
2022/05/06 02:50:24;;;;;;;68.65;18.83;;;;;;;9.69;84.46;102439.06;5009726;28;20024;-85
2022/05/06 02:52:50;;;;;;;63.08;20.17;;;;;;;9.66;84.79;102443.78;5007268;28;20118;-88
2022/05/06 02:55:16;;;;;;;42.63;19.45;;;;;;;9.64;84.00;102443.81;4990042;28;20877;-88
2022/05/06 02:57:42;;;;;;;52.40;18.67;;;;;;;9.60;84.52;102438.59;5006588;28;20324;-84
2022/05/06 03:00:08;;;;;;;56.08;19.17;;;;;;;9.61;84.70;102440.38;4991466;28;20098;-87
2022/05/06 03:02:36;;;;;;;63.03;19.92;;;;;;;9.63;85.17;102441.19;5018422;28;20041;-86
2022/05/06 03:05:06;;;;;;;36.63;17.50;;;;;;;9.65;83.96;102436.56;5008267;28;20535;-84
2022/05/06 03:07:32;;;;;;;43.20;17.75;;;;;;;9.64;84.26;102434.78;5001957;28;20042;-85
2022/05/06 03:09:57;;;;;;;52.03;19.92;;;;;;;9.63;84.67;102433.03;4988399;28;20040;-87
2022/05/06 03:12:29;;;;;;;60.85;19.35;;;;;;;9.64;84.78;102443.81;4982214;28;20060;-85
2022/05/06 03:15:03;;;;;;;67.43;17.58;;;;;;;9.56;85.31;102436.94;5002902;28;20144;-86
2022/05/06 03:17:43;;;;;;;39.17;17.70;;;;;;;9.60;84.26;102434.03;4995789;28;20056;-86
2022/05/06 03:20:11;;;;;;;44.63;18.60;;;;;;;9.63;85.10;102441.19;5002448;28;20116;-85
2022/05/06 03:22:42;;;;;;;44.50;17.98;;;;;;;9.62;84.88;102433.97;5022374;28;20045;-86
2022/05/06 03:25:12;;;;;;;35.65;18.05;;;;;;;9.69;84.31;102433.63;5011173;28;20112;-86
2022/05/06 03:30:25;;;;;;;62.35;18.60;;;;;;;9.65;85.14;102434.75;5039218;28;20467;-85
2022/05/06 03:32:51;;;;;;;34.80;16.50;;;;;;;9.71;84.36;102439.03;4996827;28;20029;-84
2022/05/06 03:35:17;;;;;;;50.63;16.88;;;;;;;9.70;85.18;102431.84;5010096;28;20076;-86
2022/05/06 03:37:44;;;;;;;47.97;17.27;;;;;;;9.63;85.29;102425.75;5018760;28;20462;-85
2022/05/06 03:40:12;;;;;;;32.65;16.15;;;;;;;9.68;84.80;102437.31;5018865;28;20057;-86
2022/05/06 03:42:39;;;;;;;34.80;17.38;;;;;;;9.62;84.83;102421.28;4993237;28;20618;-85
2022/05/06 03:45:07;;;;;;;43.65;17.55;;;;;;;9.79;84.86;102441.38;5011047;28;20136;-85
2022/05/06 03:47:34;;;;;;;33.92;16.55;;;;;;;9.83;84.16;102440.31;4992709;28;20045;-86
2022/05/06 03:52:47;;;;;;;45.10;17.98;;;;;;;9.79;84.80;102434.16;5012733;28;20118;-86
2022/05/06 03:55:13;;;;;;;34.03;16.95;;;;;;;9.82;84.23;102433.13;5030300;28;20048;-86
2022/05/06 03:57:38;;;;;;;44.85;16.58;;;;;;;9.82;84.85;102431.28;5019060;28;20029;-85
2022/05/06 04:00:05;;;;;;;33.28;16.70;;;;;;;9.83;84.89;102432.16;5006874;28;20041;-86
2022/05/06 04:02:42;;;;;;;50.38;16.55;;;;;;;9.82;85.79;102441.25;5003914;28;20038;-88
2022/05/06 04:05:11;;;;;;;71.28;17.98;;;;;;;9.82;85.32;102439.44;5009312;28;20273;-85
2022/05/06 04:07:37;;;;;;;36.85;15.10;;;;;;;9.88;84.55;102446.44;5002148;28;20166;-85
2022/05/06 04:10:04;;;;;;;34.25;15.05;;;;;;;9.86;84.50;102432.91;5025381;28;20037;-87
2022/05/06 04:12:30;;;;;;;32.03;15.90;;;;;;;9.96;84.33;102436.97;5007978;28;20369;-86
2022/05/06 04:15:04;;;;;;;32.92;16.40;;;;;;;9.94;84.58;102443.47;5013208;28;20030;-85
2022/05/06 04:17:30;;;;;;;76.53;18.77;;;;;;;9.92;85.04;102450.78;5008971;28;20111;-84
2022/05/06 04:25:27;;;;;;;73.90;14.63;;;;;;;9.79;84.78;102446.81;5018191;28;20033;-87
2022/05/06 04:27:54;;;;;;;45.15;14.82;;;;;;;9.66;85.31;102438.34;5010504;28;20106;-87
2022/05/06 04:30:20;;;;;;;34.08;12.88;;;;;;;9.68;84.79;102456.34;5022163;28;20038;-86
2022/05/06 04:33:00;;;;;;;53.97;13.13;;;;;;;9.67;85.30;102450.97;4996279;28;20030;-89
2022/05/06 04:35:26;;;;;;;31.63;13.70;;;;;;;9.58;85.29;102452.25;5010839;28;20496;-85
2022/05/06 04:37:51;;;;;;;47.03;13.70;;;;;;;9.58;85.23;102456.81;5011480;28;20033;-85
2022/05/06 04:40:17;;;;;;;27.48;13.07;;;;;;;9.61;85.52;102451.25;5010185;28;20037;-87
2022/05/06 04:42:45;;;;;;;42.60;14.95;;;;;;;9.62;86.17;102462.03;5008760;28;20029;-86
2022/05/06 04:45:11;;;;;;;57.85;14.77;;;;;;;9.60;86.17;102455.78;5026625;28;20128;-86
2022/05/06 04:47:46;;;;;;;25.83;13.15;;;;;;;9.64;85.21;102457.41;5010978;28;20025;-86
2022/05/06 04:50:12;;;;;;;28.48;13.82;;;;;;;9.72;85.40;102465.25;5010727;28;20071;-86
2022/05/06 04:52:37;;;;;;;36.22;14.27;;;;;;;9.75;84.91;102465.13;5010042;28;20488;-85
2022/05/06 04:55:03;;;;;;;29.55;14.15;;;;;;;9.79;85.18;102468.56;5024944;28;20460;-88
2022/05/06 04:57:29;;;;;;;32.95;14.40;;;;;;;9.80;84.55;102464.94;5006162;28;20112;-87
2022/05/06 04:59:55;;;;;;;61.05;13.07;;;;;;;9.80;85.26;102473.97;4993505;28;20033;-85
2022/05/06 05:02:20;;;;;;;37.90;13.75;;;;;;;9.83;85.36;102478.38;4998903;28;20399;-85
2022/05/06 05:04:56;;;;;;;46.88;13.95;;;;;;;9.70;85.94;102468.03;5010725;28;20081;-87
2022/05/06 05:07:23;;;;;;;27.92;11.95;;;;;;;9.80;84.43;102481.22;5011129;28;20052;-85
2022/05/06 05:09:54;;;;;;;26.25;12.38;;;;;;;9.84;84.66;102483.75;5015958;28;20044;-88
2022/05/06 05:12:24;;;;;;;33.40;12.52;;;;;;;9.84;85.25;102486.47;4988936;28;20038;-85
2022/05/06 05:14:51;;;;;;;27.38;11.27;;;;;;;9.84;84.05;102494.63;5009330;28;20499;-85
2022/05/06 05:17:20;;;;;;;39.80;11.98;;;;;;;9.84;84.70;102494.63;5023527;28;20036;-89
2022/05/06 05:19:46;;;;;;;29.38;12.05;;;;;;;9.85;84.33;102496.38;5010474;28;20477;-88
2022/05/06 05:22:12;;;;;;;19.98;11.80;;;;;;;9.96;84.22;102507.66;5027749;28;20350;-86
2022/05/06 05:24:40;;;;;;;28.05;12.75;;;;;;;9.96;84.52;102509.50;5006042;28;20048;-89
2022/05/06 05:27:06;;;;;;;31.25;11.75;;;;;;;9.95;84.45;102507.75;5003656;28;20060;-87
2022/05/06 05:29:33;;;;;;;38.47;11.98;;;;;;;9.93;84.45;102502.38;5022542;28;20128;-88
2022/05/06 05:31:59;;;;;;;48.10;12.27;;;;;;;9.91;84.62;102503.38;4991783;28;20033;-88
2022/05/06 05:34:25;;;;;;;25.17;11.60;;;;;;;9.96;84.51;102495.91;5004096;28;20457;-86
2022/05/06 05:36:51;;;;;;;43.50;12.40;;;;;;;9.91;85.06;102492.53;5009336;28;20029;-85
2022/05/06 05:39:17;;;;;;;34.38;13.57;;;;;;;9.90;85.55;102502.50;5010714;28;20099;-86
2022/05/06 05:41:43;;;;;;;23.77;12.32;;;;;;;9.93;84.40;102498.75;5005301;28;20059;-86
2022/05/06 05:49:59;;;;;;;27.33;12.90;;;;;;;9.94;84.86;102511.44;5000152;28;20029;-86
2022/05/06 05:52:25;;;;;;;26.52;12.98;;;;;;;10.02;84.94;102500.19;4990322;28;20088;-87
2022/05/06 05:54:51;;;;;;;21.15;11.25;;;;;;;10.12;83.75;102504.31;4999944;28;20389;-87
2022/05/06 05:57:17;;;;;;;28.85;13.18;;;;;;;10.18;84.76;102504.03;4995356;28;20441;-85
2022/05/06 05:59:43;;;;;;;31.08;13.13;;;;;;;10.26;84.02;102514.59;5026478;28;20120;-84
2022/05/06 06:02:11;;;;;;;23.70;12.63;;;;;;;10.27;83.27;102500.06;5006201;28;20057;-85
2022/05/06 06:04:38;;;;;;;28.15;12.63;;;;;;;10.36;82.61;102500.53;5023398;28;20041;-85
2022/05/06 06:07:05;;;;;;;42.95;13.38;;;;;;;10.33;84.47;102500.66;5003814;28;20533;-85
2022/05/06 06:09:32;;;;;;;29.33;13.02;;;;;;;10.40;83.26;102487.66;5020531;28;20141;-85
2022/05/06 06:12:03;;;;;;;32.55;13.30;;;;;;;10.50;82.81;102485.41;4992455;28;20120;-85
2022/05/06 06:14:29;;;;;;;21.95;12.52;;;;;;;10.60;82.30;102497.63;4992126;28;20036;-85
2022/05/06 06:16:56;;;;;;;40.63;13.43;;;;;;;10.62;83.77;102491.16;5008733;28;20033;-85
2022/05/06 06:19:24;;;;;;;21.73;12.38;;;;;;;10.76;82.35;102500.53;5010469;28;20033;-88
2022/05/06 06:21:49;;;;;;;23.65;12.93;;;;;;;10.84;83.62;102492.88;5009771;28;20034;-86
2022/05/06 06:24:19;;;;;;;58.05;13.70;;;;;;;10.77;83.67;102495.03;5010690;28;20035;-86
2022/05/06 06:26:45;;;;;;;31.75;13.98;;;;;;;10.66;83.59;102490.06;5007231;28;20029;-85
2022/05/06 06:29:17;;;;;;;27.02;12.85;;;;;;;10.77;82.45;102491.38;4990474;28;20506;-85
2022/05/06 06:31:42;;;;;;;25.83;13.63;;;;;;;10.85;82.62;102491.91;5008327;28;20033;-86
2022/05/06 06:34:08;;;;;;;23.42;12.98;;;;;;;10.99;82.67;102494.88;5006876;28;20034;-85
2022/05/06 06:36:36;;;;;;;56.47;13.43;;;;;;;11.05;82.21;102488.25;5003368;28;20109;-86
2022/05/06 06:39:02;;;;;;;34.58;13.88;;;;;;;11.14;81.36;102491.41;5011017;28;20356;-86
2022/05/06 06:41:31;;;;;;;27.90;12.85;;;;;;;11.19;80.95;102488.44;5008418;28;20037;-86
2022/05/06 06:43:57;;;;;;;24.80;13.93;;;;;;;11.32;81.34;102488.75;5026018;28;20041;-86
2022/05/06 06:46:42;;;;;;;28.55;13.07;;;;;;;11.41;81.02;102493.75;5013504;28;20029;-87
2022/05/06 06:49:25;;;;;;;22.75;13.57;;;;;;;11.52;81.42;102499.56;4999996;28;20038;-86
2022/05/06 06:51:58;;;;;;;;;;;;;;;11.68;80.33;102505.13;5024253;28;20029;-86
2022/05/06 06:54:23;;;;;;;26.98;14.15;;;;;;;11.72;80.47;102507.59;5027606;28;19920;-88
2022/05/06 06:56:49;;;;;;;26.67;13.75;;;;;;;11.84;80.67;102517.03;5018071;28;20124;-86
2022/05/06 06:59:14;;;;;;;31.35;15.18;;;;;;;11.87;80.09;102505.09;5009225;28;20069;-85
2022/05/06 07:01:39;;;;;;;27.00;14.93;;;;;;;11.96;80.34;102515.53;5025477;28;20472;-87
2022/05/06 07:04:05;;;;;;;33.83;17.55;;;;;;;12.08;81.40;102516.75;5027273;28;20594;-88
2022/05/06 07:11:58;;;;;;;36.70;17.90;;;;;;;12.29;81.06;102523.78;5026279;28;20112;-86
2022/05/06 07:14:29;;;;;;;33.45;16.27;;;;;;;12.28;80.19;102518.44;4993508;28;20041;-85
2022/05/06 07:16:55;;;;;;;37.72;18.63;;;;;;;12.24;80.63;102514.97;5007680;28;20447;-86
2022/05/06 07:19:21;;;;;;;39.72;18.13;;;;;;;12.25;80.78;102527.66;5026308;28;20044;-86
2022/05/06 07:21:51;;;;;;;34.35;17.13;;;;;;;12.24;80.65;102509.50;5006184;28;20389;-89
2022/05/06 07:24:19;;;;;;;39.30;19.60;;;;;;;12.22;80.69;102541.47;4993823;28;20153;-85
2022/05/06 07:26:44;;;;;;;44.08;18.48;;;;;;;12.21;79.62;102537.84;5025451;28;20037;-87
2022/05/06 07:29:10;;;;;;;38.33;18.60;;;;;;;12.23;79.87;102532.31;5026131;28;20033;-88
2022/05/06 07:31:35;;;;;;;43.50;20.10;;;;;;;12.20;80.49;102535.19;4996617;28;20037;-87
2022/05/06 07:34:02;;;;;;;43.35;21.00;;;;;;;12.15;81.30;102532.69;5027878;28;20106;-86
2022/05/06 07:36:27;;;;;;;42.40;20.92;;;;;;;12.19;81.78;102549.81;5009091;28;20038;-85
2022/05/06 07:38:52;;;;;;;50.45;21.83;;;;;;;12.14;80.44;102558.22;4992328;28;20049;-87
2022/05/06 07:41:18;;;;;;;48.35;22.15;;;;;;;12.02;81.23;102552.50;5004563;28;20050;-84
2022/05/06 07:43:43;;;;;;;43.30;21.23;;;;;;;12.02;80.25;102552.50;4992119;28;20030;-86
2022/05/06 07:46:11;;;;;;;46.40;21.85;;;;;;;12.21;81.32;102561.50;5006194;28;20044;-88
2022/05/06 07:48:37;;;;;;;45.25;21.92;;;;;;;12.29;80.39;102564.72;5009089;28;20041;-87
2022/05/06 07:51:04;;;;;;;46.40;22.08;;;;;;;12.33;79.32;102557.28;4993388;28;20056;-85
2022/05/06 07:53:30;;;;;;;50.42;23.77;;;;;;;12.37;79.82;102553.44;5025626;28;20033;-86
2022/05/06 07:55:55;;;;;;;54.78;23.58;;;;;;;12.45;79.95;102557.53;5025461;28;20388;-88
2022/05/06 07:58:21;;;;;;;52.25;24.77;;;;;;;12.53;79.14;102557.09;5025394;28;20045;-88
2022/05/06 08:00:46;;;;;;;49.97;23.42;;;;;;;12.60;78.54;102560.41;5005278;28;20033;-85
2022/05/06 08:05:59;;;;;;;47.97;23.83;;;;;;;12.64;79.24;102567.47;5008286;28;20045;-86
2022/05/06 08:08:26;;;;;;;49.92;23.83;;;;;;;12.85;78.48;102568.13;5020872;28;20133;-88
2022/05/06 08:10:52;;;;;;;42.60;21.58;;;;;;;12.97;78.21;102568.34;5027298;28;20021;-87
2022/05/06 08:13:17;;;;;;;53.17;24.42;;;;;;;13.00;77.72;102562.69;5028979;28;20107;-89
2022/05/06 08:15:44;;;;;;;46.38;22.60;;;;;;;13.11;77.13;102575.78;4994904;28;20075;-89
2022/05/06 08:18:09;;;;;;;51.05;24.17;;;;;;;13.26;77.89;102574.97;5031115;28;20032;-85
2022/05/06 08:20:35;;;;;;;51.88;24.30;;;;;;;13.27;77.29;102570.38;5012569;28;20033;-88
2022/05/06 08:23:00;;;;;;;48.60;24.27;;;;;;;13.33;77.00;102569.13;5011926;28;20045;-89
2022/05/06 08:25:27;;;;;;;43.78;23.85;;;;;;;13.38;76.56;102569.75;5010720;28;20519;-85
2022/05/06 08:27:53;;;;;;;44.20;22.15;;;;;;;13.47;76.81;102561.91;5028172;28;20053;-88
2022/05/06 08:30:20;;;;;;;44.33;22.67;;;;;;;13.64;76.37;102557.34;4995764;28;20480;-89
2022/05/06 08:32:46;;;;;;;38.97;22.05;;;;;;;13.88;74.92;102563.22;4991447;28;20041;-86
2022/05/06 08:35:12;;;;;;;44.65;22.88;;;;;;;13.81;74.73;102550.91;5012923;28;20445;-86
2022/05/06 08:37:46;;;;;;;40.80;21.42;;;;;;;13.68;75.33;102558.94;5028771;28;20132;-86
2022/05/06 08:40:25;;;;;;;44.03;22.50;;;;;;;13.72;75.38;102561.41;5013216;28;20128;-86
2022/05/06 08:42:51;;;;;;;42.13;21.88;;;;;;;13.88;75.66;102553.16;5028408;28;20412;-90
2022/05/06 08:50:57;;;;;;;43.85;22.55;;;;;;;14.65;75.60;102552.19;5003249;28;20405;-90
2022/05/06 08:53:31;;;;;;;40.45;21.10;;;;;;;14.81;73.95;102538.38;5025525;28;20125;-90
2022/05/06 08:55:58;;;;;;;45.95;20.65;;;;;;;15.03;72.79;102544.25;5016211;28;20030;-86
2022/05/06 08:58:25;;;;;;;45.47;21.65;;;;;;;15.23;71.21;102529.25;5028604;28;20034;-86
2022/05/06 09:01:04;;;;;;;43.10;22.83;;;;;;;15.34;72.69;102533.16;5028316;28;20495;-87
2022/05/06 09:03:29;;;;;;;40.10;21.38;;;;;;;15.46;71.56;102535.97;5011705;28;20041;-88
2022/05/06 09:05:58;;;;;;;43.92;23.65;;;;;;;15.49;71.54;102534.91;5008789;28;20036;-86
2022/05/06 09:08:37;;;;;;;38.90;21.23;;;;;;;15.61;70.36;102546.91;5022015;28;20063;-88
2022/05/06 09:11:07;;;;;;;38.08;21.38;;;;;;;15.73;71.04;102541.53;5028659;28;20500;-87
2022/05/06 09:13:37;;;;;;;38.22;20.38;;;;;;;15.49;70.18;102544.00;4994019;28;20460;-86
2022/05/06 09:16:40;;;;;;;35.85;20.35;;;;;;;15.65;71.66;102552.13;5017743;28;20029;-90
2022/05/06 09:19:15;;;;;;;;;;;;;;;15.87;71.75;102539.72;5008768;28;20717;-85
2022/05/06 09:21:58;;;;;;;32.05;17.77;;;;;;;15.80;68.20;102528.25;5005327;28;20027;-89
2022/05/06 09:24:27;;;;;;;38.20;20.17;;;;;;;16.01;68.97;102542.41;5011995;28;20372;-87
2022/05/06 09:26:58;;;;;;;31.33;18.23;;;;;;;16.41;70.17;102529.53;5027674;28;20063;-89
2022/05/06 09:29:37;;;;;;;32.47;19.60;;;;;;;17.18;70.47;102533.19;5028202;28;20093;-87
2022/05/06 09:32:28;;;;;;;31.73;18.30;;;;;;;17.47;65.73;102536.53;5025952;28;20362;-88
2022/05/06 09:34:58;;;;;;;33.88;18.45;;;;;;;17.41;66.15;102534.25;5011612;28;20026;-86
2022/05/06 09:37:38;;;;;;;30.27;19.05;;;;;;;17.51;67.12;102521.53;5027950;28;20457;-86
2022/05/06 09:40:20;;;;;;;33.13;19.02;;;;;;;17.81;64.36;102507.38;5030440;28;20038;-88
2022/05/06 09:42:55;;;;;;;30.42;18.80;;;;;;;18.29;65.17;102517.47;5029171;28;20090;-88
2022/05/06 09:45:38;;;;;;;30.48;18.20;;;;;;;18.39;62.57;102521.25;5010472;28;20041;-88
2022/05/06 09:48:04;;;;;;;32.42;18.13;;;;;;;18.44;61.02;102520.88;4984089;28;20061;-87
2022/05/06 09:50:41;;;;;;;31.45;19.27;;;;;;;18.33;61.52;102519.84;5011887;28;20096;-88
2022/05/06 09:53:11;;;;;;;29.83;18.13;;;;;;;18.75;64.35;102506.44;5013511;28;20034;-88
2022/05/06 09:55:38;;;;;;;30.95;18.77;;;;;;;19.13;62.81;102523.63;5011646;28;20041;-86
2022/05/06 09:58:04;;;;;;;28.50;17.77;;;;;;;19.49;60.63;102514.16;5009827;28;20468;-90
2022/05/06 10:00:32;;;;;;;30.88;19.25;;;;;;;19.82;58.36;102516.88;5008871;28;20092;-88
2022/05/06 10:02:58;;;;;;;29.52;18.17;;;;;;;20.01;57.22;102512.56;4994693;28;20137;-88
2022/05/06 10:05:24;;;;;;;32.97;19.35;;;;;;;20.28;60.09;102515.66;5010591;28;20491;-87
2022/05/06 10:07:55;;;;;;;30.05;17.70;;;;;;;20.45;56.71;102516.09;5008788;28;20037;-86
2022/05/06 10:10:29;;;;;;;27.77;16.92;;;;;;;20.37;57.20;102513.97;5028974;28;20037;-86
2022/05/06 10:13:01;;;;;;;29.00;18.05;;;;;;;20.29;58.69;102511.91;5008692;28;20041;-85
2022/05/06 10:15:28;;;;;;;25.38;16.23;;;;;;;20.60;59.08;102509.22;5027195;28;20064;-87
2022/05/06 10:18:02;;;;;;;28.75;17.50;;;;;;;20.86;58.38;102504.16;5028962;28;20030;-87
2022/05/06 10:20:33;;;;;;;26.35;16.63;;;;;;;21.13;54.08;102503.56;5028267;28;20060;-88
2022/05/06 10:23:00;;;;;;;26.07;16.30;;;;;;;20.91;51.86;102495.44;5009896;28;20060;-87
2022/05/06 10:25:40;;;;;;;27.75;18.17;;;;;;;20.37;56.79;102492.75;5015355;28;20041;-86
2022/05/06 10:34:08;;;;;;;30.30;16.20;;;;;;;21.50;56.04;102489.13;5033557;28;20122;-83
2022/05/06 10:36:43;;;;;;;23.98;12.95;;;;;;;21.92;53.29;102489.75;5003026;28;20130;-88
2022/05/06 10:39:33;;;;;;;19.92;13.38;;;;;;;22.29;53.55;102500.13;4995788;28;20063;-86
2022/05/06 10:42:08;;;;;;;21.65;13.18;;;;;;;22.29;50.75;102484.38;5022080;28;20037;-86
2022/05/06 10:44:48;;;;;;;20.45;11.98;;;;;;;22.47;51.77;102476.16;5021948;28;20042;-85
2022/05/06 10:47:13;;;;;;;19.42;11.75;;;;;;;22.74;51.06;102480.03;5019559;28;20491;-87
2022/05/06 10:49:39;;;;;;;21.17;13.02;;;;;;;22.93;48.71;102480.00;5009931;28;20033;-86
2022/05/06 10:52:20;;;;;;;24.10;14.02;;;;;;;23.18;51.35;102470.09;4982748;28;20030;-87
2022/05/06 10:55:05;;;;;;;19.60;12.07;;;;;;;23.52;48.49;102464.78;5008920;28;20049;-87
2022/05/06 10:57:32;;;;;;;16.02;11.55;;;;;;;23.82;47.37;102471.88;5017201;28;20038;-85
2022/05/06 11:00:06;;;;;;;16.13;11.43;;;;;;;23.89;46.31;102470.22;5005555;28;20041;-88
2022/05/06 11:02:33;;;;;;;20.58;12.27;;;;;;;23.42;44.48;102466.75;5005048;28;20049;-87
2022/05/06 11:05:00;;;;;;;20.70;13.25;;;;;;;22.96;44.24;102462.16;5007986;28;20054;-86
2022/05/06 11:07:27;;;;;;;19.60;12.35;;;;;;;22.38;45.58;102461.31;4984999;28;20057;-88
2022/05/06 11:09:55;;;;;;;21.05;13.20;;;;;;;21.98;50.03;102455.91;5001955;28;20041;-87
2022/05/06 11:12:29;;;;;;;20.45;11.63;;;;;;;22.14;49.69;102453.44;5008227;28;20030;-86
2022/05/06 11:14:57;;;;;;;14.30;9.50;;;;;;;22.71;48.01;102460.91;5024603;28;20436;-86
2022/05/06 11:17:24;;;;;;;13.52;9.50;;;;;;;23.08;48.33;102452.59;5008340;28;20108;-85
2022/05/06 11:19:50;;;;;;;14.30;8.93;;;;;;;23.59;48.42;102457.53;5026208;28;20040;-86
2022/05/06 11:22:16;;;;;;;13.30;8.77;;;;;;;23.85;44.62;102443.78;5023886;28;20037;-88
2022/05/06 11:24:43;;;;;;;12.20;8.95;;;;;;;23.96;43.12;102445.44;5033795;28;20072;-85
2022/05/06 11:27:19;;;;;;;48.47;10.75;;;;;;;24.36;46.94;102449.59;5008166;28;20041;-85
2022/05/06 11:30:00;;;;;;;14.27;9.73;;;;;;;24.61;47.20;102445.97;5026986;28;20176;-87
2022/05/06 11:32:29;;;;;;;13.70;9.15;;;;;;;24.71;45.38;102439.41;5010887;28;20038;-86
2022/05/06 11:34:59;;;;;;;12.35;8.90;;;;;;;24.77;43.47;102438.75;5013597;28;20042;-88
2022/05/06 11:37:30;;;;;;;13.05;9.57;;;;;;;24.74;43.87;102427.94;5005760;28;20125;-87
2022/05/06 11:42:40;;;;;;;10.77;8.07;;;;;;;24.60;40.69;102435.88;5026022;28;20038;-86
2022/05/06 11:47:50;;;;;;;10.93;7.65;;;;;;;24.73;42.74;102427.09;5028906;28;20029;-85
2022/05/06 11:50:17;;;;;;;10.77;7.68;;;;;;;25.02;43.56;102431.41;5042104;28;20028;-87
2022/05/06 11:52:45;;;;;;;9.10;7.13;;;;;;;25.23;44.14;102440.22;5029779;28;20033;-84
2022/05/06 11:55:11;;;;;;;13.55;7.97;;;;;;;25.56;42.60;102431.97;5025586;28;20279;-85
2022/05/06 11:57:39;;;;;;;9.77;7.22;;;;;;;25.71;39.75;102419.09;5033931;28;20128;-84
2022/05/06 12:00:06;;;;;;;10.60;8.07;;;;;;;25.61;40.44;102415.59;5022429;28;20473;-88
2022/05/06 12:02:49;;;;;;;12.52;8.70;;;;;;;25.57;40.73;102412.28;5014317;28;20053;-85
2022/05/06 12:05:15;;;;;;;13.57;8.05;;;;;;;25.49;39.42;102405.81;5032583;28;20564;-86
2022/05/06 12:07:46;;;;;;;11.93;9.00;;;;;;;25.14;38.41;102403.13;5009230;28;20496;-87
2022/05/06 12:10:26;;;;;;;14.73;9.30;;;;;;;25.25;42.93;102399.13;5025283;28;20029;-85
2022/05/06 12:12:56;;;;;;;12.75;9.05;;;;;;;25.42;42.26;102406.50;5027469;28;20033;-87